Time;durP1;ratioP1;P1;durP2;ratioP2;P2;SDS_P1;SDS_P2;PMS_P1;PMS_P2;Temp;Humidity;BMP_temperature;BMP_pressure;BME280_temperature;BME280_humidity;BME280_pressure;Samples;Min_cycle;Max_cycle;Signal;HPM_P1;HPM_P2
2022/03/28 00:02:24;;;;;;;;;;;6.10;99.90;;;;;;4958859;28;19929;-73
2022/03/28 00:04:50;;;;;;;;;;;6.20;99.90;;;;;;4968458;28;19987;-74
2022/03/28 00:07:15;;;;;;;;;;;6.10;99.90;;;;;;4988858;28;19929;-74
2022/03/28 00:09:41;;;;;;;;;;;6.10;99.90;;;;;;4969023;28;20630;-74
2022/03/28 00:12:06;;;;;;;;;;;6.00;99.90;;;;;;4970584;28;19995;-74
2022/03/28 00:14:32;;;;;;;;;;;5.90;99.90;;;;;;4986394;28;19929;-74
2022/03/28 00:16:58;;;;;;;;;;;5.90;99.90;;;;;;4987987;28;20294;-73
2022/03/28 00:19:23;;;;;;;;;;;6.00;99.90;;;;;;4989641;28;19929;-74
2022/03/28 00:21:50;;;;;;;;;;;5.80;99.90;;;;;;4975737;28;20534;-73
2022/03/28 00:24:15;;;;;;;;;;;5.90;99.90;;;;;;4998120;28;19929;-74
2022/03/28 00:26:41;;;;;;;;;;;5.80;99.90;;;;;;4996986;28;19951;-73
2022/03/28 00:29:07;;;;;;;;;;;5.70;99.90;;;;;;4967356;28;19933;-73
2022/03/28 00:31:32;;;;;;;;;;;5.70;99.90;;;;;;4968452;28;20277;-73
2022/03/28 00:33:58;;;;;;;;;;;5.70;99.90;;;;;;4974852;28;19936;-74
2022/03/28 00:36:23;;;;;;;;;;;5.80;99.90;;;;;;4970696;28;19929;-73
2022/03/28 00:38:51;;;;;;;;;;;5.80;99.90;;;;;;4988757;28;20043;-73
2022/03/28 00:41:17;;;;;;;;;;;5.80;99.90;;;;;;4975968;28;19929;-74
2022/03/28 00:43:43;;;;;;;;;;;5.80;99.90;;;;;;4971226;28;19929;-74
2022/03/28 00:46:09;;;;;;;;;;;5.80;99.90;;;;;;4987647;28;20997;-73
2022/03/28 00:48:34;;;;;;;;;;;5.80;99.90;;;;;;4969927;28;19929;-73
2022/03/28 00:51:01;;;;;;;;;;;5.80;99.90;;;;;;4990012;28;20008;-73
2022/03/28 00:53:26;;;;;;;;;;;5.80;99.90;;;;;;4973799;28;19933;-74
2022/03/28 00:55:52;;;;;;;;;;;5.80;99.90;;;;;;4968520;28;19929;-73
2022/03/28 00:58:18;;;;;;;;;;;5.90;99.90;;;;;;4969844;28;19929;-74
2022/03/28 01:00:44;;;;;;;;;;;5.80;99.90;;;;;;4988376;28;20382;-73
2022/03/28 01:03:09;;;;;;;;;;;5.80;99.90;;;;;;4984436;28;19929;-74
2022/03/28 01:05:35;;;;;;;;;;;5.90;99.90;;;;;;4968049;28;20280;-73
2022/03/28 01:08:01;;;;;;;;;;;5.90;99.90;;;;;;4968889;28;19933;-74
2022/03/28 01:10:26;;;;;;;;;;;5.90;99.90;;;;;;4984260;28;19963;-74
2022/03/28 01:12:52;;;;;;;;;;;5.80;99.90;;;;;;4968688;28;20095;-74
2022/03/28 01:15:18;;;;;;;;;;;5.90;99.90;;;;;;4964569;28;19929;-74
2022/03/28 01:20:30;;;;;;;;;;;5.80;99.90;;;;;;4986808;28;19929;-74
2022/03/28 01:22:55;;;;;;;;;;;5.80;99.90;;;;;;4979615;28;19972;-74
2022/03/28 01:25:26;;;;;;;;;;;5.70;99.90;;;;;;4997138;28;20075;-74
2022/03/28 01:27:52;;;;;;;;;;;5.60;99.90;;;;;;4980391;28;19925;-74
2022/03/28 01:30:22;;;;;;;;;;;5.60;99.90;;;;;;4985880;28;19929;-74
2022/03/28 01:32:48;;;;;;;;;;;5.70;99.90;;;;;;4966613;28;19968;-74
2022/03/28 01:35:24;;;;;;;;;;;5.60;99.90;;;;;;5001973;28;20020;-74
2022/03/28 01:37:49;;;;;;;;;;;5.80;99.90;;;;;;4982152;28;19964;-74
2022/03/28 01:40:15;;;;;;;;;;;5.80;99.90;;;;;;4984491;28;19929;-74
2022/03/28 01:42:40;;;;;;;;;;;5.80;99.90;;;;;;5000861;28;20024;-74
2022/03/28 01:45:06;;;;;;;;;;;5.80;99.90;;;;;;5001931;28;19930;-74
2022/03/28 01:47:32;;;;;;;;;;;5.80;99.90;;;;;;4983779;28;20155;-74
2022/03/28 01:49:57;;;;;;;;;;;5.90;99.90;;;;;;5001409;28;20011;-74
2022/03/28 01:52:23;;;;;;;;;;;5.90;99.90;;;;;;4982323;28;19956;-74
2022/03/28 01:54:49;;;;;;;;;;;5.90;99.90;;;;;;4983283;28;20238;-74
2022/03/28 01:57:14;;;;;;;;;;;5.90;99.90;;;;;;5001262;28;19929;-74
2022/03/28 01:59:40;;;;;;;;;;;5.80;99.90;;;;;;5001883;28;20349;-74
2022/03/28 02:02:05;;;;;;;;;;;5.70;99.90;;;;;;4983522;28;19929;-74
2022/03/28 02:04:32;;;;;;;;;;;5.70;99.90;;;;;;4999539;28;19929;-74
2022/03/28 02:06:58;;;;;;;;;;;5.70;99.90;;;;;;4984251;28;19979;-74
2022/03/28 02:09:23;;;;;;;;;;;5.80;99.90;;;;;;4982806;28;20346;-74
2022/03/28 02:11:49;;;;;;;;;;;5.80;99.90;;;;;;5001185;28;19935;-74
2022/03/28 02:14:15;;;;;;;;;;;5.80;99.90;;;;;;4982768;28;19928;-74
2022/03/28 02:16:40;;;;;;;;;;;5.70;99.90;;;;;;4982662;28;19929;-74
2022/03/28 02:19:06;;;;;;;;;;;5.70;99.90;;;;;;4983002;28;20040;-74
2022/03/28 02:21:31;;;;;;;;;;;5.60;99.90;;;;;;4983998;28;19925;-74
2022/03/28 02:23:57;;;;;;;;;;;5.60;99.90;;;;;;4995464;28;19935;-74
2022/03/28 02:26:22;;;;;;;;;;;5.60;99.90;;;;;;4982099;28;19980;-74
2022/03/28 02:28:48;;;;;;;;;;;5.70;99.90;;;;;;4981480;28;20010;-74
2022/03/28 02:31:13;;;;;;;;;;;5.60;99.90;;;;;;4984221;28;20438;-74
2022/03/28 02:33:39;;;;;;;;;;;5.60;99.90;;;;;;4965321;28;19989;-73
2022/03/28 02:36:05;;;;;;;;;;;5.70;99.90;;;;;;5002540;28;19929;-73
2022/03/28 02:38:31;;;;;;;;;;;5.60;99.90;;;;;;4982496;28;19933;-74
2022/03/28 02:41:09;;;;;;;;;;;5.60;99.90;;;;;;4998937;28;19974;-74
2022/03/28 02:43:34;;;;;;;;;;;5.60;99.90;;;;;;5000703;28;19972;-74
2022/03/28 02:46:00;;;;;;;;;;;5.50;99.90;;;;;;5000768;28;20946;-74
2022/03/28 02:48:25;;;;;;;;;;;5.60;99.90;;;;;;4982946;28;19975;-74
2022/03/28 02:50:51;;;;;;;;;;;5.60;99.90;;;;;;4980752;28;19929;-74
2022/03/28 02:53:16;;;;;;;;;;;5.60;99.90;;;;;;4999750;28;19983;-74
2022/03/28 02:55:42;;;;;;;;;;;5.60;99.90;;;;;;4997943;28;20355;-74
2022/03/28 02:58:08;;;;;;;;;;;5.60;99.90;;;;;;4986019;28;19925;-74
2022/03/28 03:00:34;;;;;;;;;;;5.60;99.90;;;;;;5000967;28;20725;-74
2022/03/28 03:03:00;;;;;;;;;;;5.60;99.90;;;;;;4984585;28;20523;-74
2022/03/28 03:05:26;;;;;;;;;;;5.60;99.90;;;;;;4984782;28;19936;-74
2022/03/28 03:07:52;;;;;;;;;;;5.70;99.90;;;;;;4986681;28;19952;-74
2022/03/28 03:10:17;;;;;;;;;;;5.60;99.90;;;;;;5004200;28;19929;-74
2022/03/28 03:12:43;;;;;;;;;;;5.70;99.90;;;;;;4986607;28;19940;-74
2022/03/28 03:15:09;;;;;;;;;;;5.70;99.90;;;;;;4971977;28;19929;-74
2022/03/28 03:17:37;;;;;;;;;;;5.70;99.90;;;;;;4987268;28;19925;-74
2022/03/28 03:20:04;;;;;;;;;;;5.70;99.90;;;;;;4983788;28;20442;-74
2022/03/28 03:22:29;;;;;;;;;;;5.70;99.90;;;;;;5003418;28;19929;-74
2022/03/28 03:24:55;;;;;;;;;;;5.70;99.90;;;;;;4999254;28;19936;-74
2022/03/28 03:27:20;;;;;;;;;;;5.70;99.90;;;;;;5001908;28;20376;-74
2022/03/28 03:29:47;;;;;;;;;;;5.70;99.90;;;;;;5005233;28;19933;-74
2022/03/28 03:32:13;;;;;;;;;;;5.70;99.90;;;;;;5003844;28;19929;-74
2022/03/28 03:34:39;;;;;;;;;;;5.60;99.90;;;;;;5004840;28;20046;-74
2022/03/28 03:37:06;;;;;;;;;;;5.70;99.90;;;;;;5003284;28;20679;-74
2022/03/28 03:39:32;;;;;;;;;;;5.70;99.90;;;;;;4986930;28;20464;-74
2022/03/28 03:41:57;;;;;;;;;;;5.70;99.90;;;;;;5005761;28;20047;-74
2022/03/28 03:44:23;;;;;;;;;;;5.70;99.90;;;;;;5000359;28;20378;-74
2022/03/28 03:46:49;;;;;;;;;;;5.80;99.90;;;;;;5002545;28;19936;-74
2022/03/28 03:49:16;;;;;;;;;;;5.80;99.90;;;;;;4988491;28;19937;-74
2022/03/28 03:51:42;;;;;;;;;;;5.60;99.90;;;;;;5003347;28;19937;-74
2022/03/28 03:54:07;;;;;;;;;;;5.70;99.90;;;;;;5001580;28;20294;-74
2022/03/28 03:56:33;;;;;;;;;;;5.70;99.90;;;;;;5005530;28;19976;-74
2022/03/28 03:58:59;;;;;;;;;;;5.70;99.90;;;;;;4984171;28;19934;-74
2022/03/28 04:01:28;;;;;;;;;;;5.70;99.90;;;;;;5001156;28;19976;-74
2022/03/28 04:03:54;;;;;;;;;;;5.70;99.90;;;;;;4983517;28;19932;-74
2022/03/28 04:06:19;;;;;;;;;;;5.70;99.90;;;;;;4985807;28;20409;-74
2022/03/28 04:08:45;;;;;;;;;;;5.70;99.90;;;;;;4987576;28;19929;-74
2022/03/28 04:11:11;;;;;;;;;;;5.80;99.90;;;;;;4984358;28;19933;-74
2022/03/28 04:13:37;;;;;;;;;;;5.80;99.90;;;;;;4974799;28;20040;-74
2022/03/28 04:16:03;;;;;;;;;;;5.70;99.90;;;;;;4962070;28;19944;-74
2022/03/28 04:18:29;;;;;;;;;;;5.50;99.90;;;;;;4986007;28;19964;-74
2022/03/28 04:20:55;;;;;;;;;;;5.50;99.90;;;;;;4984420;28;19933;-74
2022/03/28 04:23:21;;;;;;;;;;;5.50;99.90;;;;;;5004060;28;19982;-74
2022/03/28 04:25:47;;;;;;;;;;;5.60;99.90;;;;;;4984930;28;19952;-74
2022/03/28 04:28:12;;;;;;;;;;;5.60;99.90;;;;;;4998908;28;19952;-74
2022/03/28 04:30:38;;;;;;;;;;;5.60;99.90;;;;;;4984971;28;19956;-74
2022/03/28 04:33:04;;;;;;;;;;;5.60;99.90;;;;;;4983403;28;19991;-74
2022/03/28 04:35:30;;;;;;;;;;;5.60;99.90;;;;;;4998547;28;19978;-74
2022/03/28 04:37:55;;;;;;;;;;;5.70;99.90;;;;;;4980281;28;20348;-74
2022/03/28 04:40:21;;;;;;;;;;;5.60;99.90;;;;;;4983980;28;19940;-74
2022/03/28 04:42:46;;;;;;;;;;;5.70;99.90;;;;;;4971591;28;19982;-74
2022/03/28 04:45:13;;;;;;;;;;;5.50;99.90;;;;;;4967162;28;19933;-74
2022/03/28 04:47:38;;;;;;;;;;;5.60;99.90;;;;;;4969592;28;19929;-74
2022/03/28 04:50:05;;;;;;;;;;;5.70;99.90;;;;;;4986251;28;19952;-74
2022/03/28 04:52:30;;;;;;;;;;;5.60;99.90;;;;;;4984812;28;20525;-74
2022/03/28 04:54:56;;;;;;;;;;;5.70;99.90;;;;;;4968987;28;20622;-74
2022/03/28 04:57:22;;;;;;;;;;;5.60;99.90;;;;;;4969958;28;19948;-74
2022/03/28 04:59:48;;;;;;;;;;;5.60;99.90;;;;;;4967389;28;19956;-74
2022/03/28 05:02:14;;;;;;;;;;;5.70;99.90;;;;;;4966703;28;19934;-74
2022/03/28 05:04:40;;;;;;;;;;;5.60;99.90;;;;;;4968407;28;19933;-74
2022/03/28 05:07:06;;;;;;;;;;;5.70;99.90;;;;;;4989652;28;20337;-74
2022/03/28 05:09:32;;;;;;;;;;;5.70;99.90;;;;;;4988095;28;19934;-74
2022/03/28 05:11:58;;;;;;;;;;;5.70;99.90;;;;;;4961109;28;20378;-74
2022/03/28 05:14:24;;;;;;;;;;;5.80;99.90;;;;;;4977280;28;19933;-74
2022/03/28 05:16:49;;;;;;;;;;;5.90;99.90;;;;;;5001662;28;19944;-74
2022/03/28 05:19:15;;;;;;;;;;;5.80;99.90;;;;;;4988208;28;19929;-74
2022/03/28 05:21:41;;;;;;;;;;;5.80;99.90;;;;;;5001868;28;19936;-75
2022/03/28 05:24:06;;;;;;;;;;;5.70;99.90;;;;;;5003063;28;19929;-74
2022/03/28 05:26:32;;;;;;;;;;;5.70;99.90;;;;;;4982894;28;19990;-74
2022/03/28 05:28:58;;;;;;;;;;;5.80;99.90;;;;;;4985926;28;20365;-74
2022/03/28 05:31:24;;;;;;;;;;;5.70;99.90;;;;;;4986416;28;20108;-74
2022/03/28 05:33:49;;;;;;;;;;;5.70;99.90;;;;;;4985063;28;19936;-74
2022/03/28 05:36:15;;;;;;;;;;;5.70;99.90;;;;;;4986147;28;20417;-74
2022/03/28 05:38:42;;;;;;;;;;;5.70;99.90;;;;;;4983482;28;20008;-74
2022/03/28 05:41:13;;;;;;;;;;;5.80;99.90;;;;;;5072047;27;2048755;-73
2022/03/28 05:43:39;;;;;;;;;;;5.80;99.90;;;;;;5123028;27;19927;-73
2022/03/28 05:46:05;;;;;;;;;;;5.90;99.90;;;;;;5122790;27;20447;-72
2022/03/28 05:48:31;;;;;;;;;;;6.00;99.90;;;;;;5105207;27;19927;-72
2022/03/28 05:50:56;;;;;;;;;;;5.90;99.90;;;;;;5118233;27;20685;-72
2022/03/28 05:53:22;;;;;;;;;;;5.90;99.90;;;;;;5122173;27;20021;-71
2022/03/28 05:55:48;;;;;;;;;;;5.90;99.90;;;;;;5121758;27;19927;-72
2022/03/28 05:58:13;;;;;;;;;;;6.00;99.90;;;;;;5119221;27;19952;-72
2022/03/28 06:00:39;;;;;;;;;;;5.90;99.90;;;;;;5118820;27;19999;-72
2022/03/28 06:03:05;;;;;;;;;;;6.00;99.90;;;;;;5136825;27;19927;-72
2022/03/28 06:05:31;;;;;;;;;;;6.00;99.90;;;;;;5119556;27;20296;-72
2022/03/28 06:07:57;;;;;;;;;;;6.00;99.90;;;;;;5136745;27;19931;-72
2022/03/28 06:10:23;;;;;;;;;;;5.90;99.90;;;;;;5139307;27;19942;-73
2022/03/28 06:12:48;;;;;;;;;;;6.00;99.90;;;;;;5118387;27;20624;-73
2022/03/28 06:15:14;;;;;;;;;;;6.10;99.90;;;;;;5136343;27;19940;-72
2022/03/28 06:17:40;;;;;;;;;;;6.10;99.90;;;;;;5115293;27;19971;-72
2022/03/28 06:20:05;;;;;;;;;;;6.10;99.90;;;;;;5136606;27;20641;-72
2022/03/28 06:22:31;;;;;;;;;;;6.10;99.90;;;;;;5133439;27;20439;-72
2022/03/28 06:24:57;;;;;;;;;;;6.00;99.90;;;;;;5133683;27;19931;-72
2022/03/28 06:27:25;;;;;;;;;;;6.10;99.90;;;;;;5117962;27;20657;-73
2022/03/28 06:29:51;;;;;;;;;;;6.10;99.90;;;;;;5130944;27;20420;-72
2022/03/28 06:32:17;;;;;;;;;;;6.00;99.90;;;;;;5117684;27;19985;-72
2022/03/28 06:34:43;;;;;;;;;;;6.00;99.90;;;;;;5136982;27;20343;-71
2022/03/28 06:37:08;;;;;;;;;;;6.00;99.90;;;;;;5105974;27;19927;-71
2022/03/28 06:39:34;;;;;;;;;;;6.00;99.90;;;;;;5108172;27;19927;-72
2022/03/28 06:42:00;;;;;;;;;;;6.00;99.90;;;;;;5107012;27;19927;-72
2022/03/28 06:44:26;;;;;;;;;;;6.00;99.90;;;;;;5103660;27;20888;-72
2022/03/28 06:46:51;;;;;;;;;;;6.00;99.90;;;;;;5108289;27;19923;-72
2022/03/28 06:49:17;;;;;;;;;;;5.80;99.90;;;;;;5102993;27;20020;-73
2022/03/28 06:51:43;;;;;;;;;;;5.90;99.90;;;;;;5099817;27;19949;-72
2022/03/28 06:54:10;;;;;;;;;;;5.90;99.90;;;;;;5098600;27;20627;-71
2022/03/28 06:56:36;;;;;;;;;;;5.90;99.90;;;;;;5091896;27;19927;-72
2022/03/28 06:59:02;;;;;;;;;;;5.90;99.90;;;;;;5096351;27;20273;-72
2022/03/28 07:01:27;;;;;;;;;;;5.90;99.90;;;;;;5102933;27;19934;-72
2022/03/28 07:03:55;;;;;;;;;;;5.80;99.90;;;;;;5115786;27;19927;-72
2022/03/28 07:06:20;;;;;;;;;;;5.80;99.90;;;;;;5100928;27;19928;-72
2022/03/28 07:08:46;;;;;;;;;;;5.80;99.90;;;;;;5100636;27;19978;-72
2022/03/28 07:11:12;;;;;;;;;;;5.90;99.90;;;;;;5122606;27;20326;-72
2022/03/28 07:13:37;;;;;;;;;;;5.90;99.90;;;;;;5082970;27;19927;-70
2022/03/28 07:16:03;;;;;;;;;;;5.90;99.90;;;;;;5093215;27;20451;-72
2022/03/28 07:18:29;;;;;;;;;;;5.80;99.90;;;;;;5120441;27;19949;-72
2022/03/28 07:20:54;;;;;;;;;;;5.90;99.90;;;;;;5096146;27;19927;-72
2022/03/28 07:23:20;;;;;;;;;;;5.80;99.90;;;;;;5115127;27;19943;-72
2022/03/28 07:25:46;;;;;;;;;;;5.70;99.90;;;;;;5116799;27;19927;-72
2022/03/28 07:28:12;;;;;;;;;;;5.80;99.90;;;;;;5098902;27;19934;-72
2022/03/28 07:30:38;;;;;;;;;;;6.00;99.90;;;;;;5110057;27;19975;-72
2022/03/28 07:33:06;;;;;;;;;;;6.10;99.90;;;;;;5094029;27;19978;-72
2022/03/28 07:35:35;;;;;;;;;;;6.10;99.90;;;;;;5094544;27;20139;-72
2022/03/28 07:38:08;;;;;;;;;;;6.10;99.90;;;;;;5087225;27;19927;-72
2022/03/28 07:40:34;;;;;;;;;;;6.00;99.90;;;;;;5096089;27;19927;-72
2022/03/28 07:43:00;;;;;;;;;;;6.10;99.90;;;;;;5095476;27;19924;-72
2022/03/28 07:45:26;;;;;;;;;;;6.10;99.90;;;;;;5096893;27;19934;-72
2022/03/28 07:47:52;;;;;;;;;;;6.20;99.90;;;;;;5097301;27;19927;-72
2022/03/28 07:50:17;;;;;;;;;;;6.10;99.90;;;;;;5097122;27;19938;-72
2022/03/28 07:52:43;;;;;;;;;;;6.20;99.90;;;;;;5092462;27;19932;-72
2022/03/28 07:55:11;;;;;;;;;;;6.10;99.90;;;;;;5097209;27;19979;-72
2022/03/28 07:57:37;;;;;;;;;;;6.10;99.90;;;;;;5097925;27;19963;-72
2022/03/28 08:00:04;;;;;;;;;;;6.00;99.90;;;;;;5101457;27;20820;-72
2022/03/28 08:02:29;;;;;;;;;;;6.20;99.90;;;;;;5115590;27;19927;-72
2022/03/28 08:04:55;;;;;;;;;;;6.40;99.90;;;;;;5091905;27;19927;-72
2022/03/28 08:07:21;;;;;;;;;;;6.20;99.90;;;;;;5104318;27;19927;-72
2022/03/28 08:09:47;;;;;;;;;;;6.20;99.90;;;;;;5078433;27;19931;-72
2022/03/28 08:12:13;;;;;;;;;;;6.10;99.90;;;;;;5088631;27;21120;-72
2022/03/28 08:14:39;;;;;;;;;;;6.10;99.90;;;;;;5095646;27;19927;-72
2022/03/28 08:17:05;;;;;;;;;;;5.90;99.90;;;;;;5108908;27;19931;-72
2022/03/28 08:19:31;;;;;;;;;;;6.20;99.90;;;;;;5092394;27;20407;-70
2022/03/28 08:21:56;;;;;;;;;;;6.10;99.90;;;;;;5116578;27;19931;-72
2022/03/28 08:24:22;;;;;;;;;;;6.20;99.90;;;;;;5084440;27;19927;-73
2022/03/28 08:26:49;;;;;;;;;;;6.10;99.90;;;;;;5107585;27;20434;-72
2022/03/28 08:29:14;;;;;;;;;;;6.30;99.90;;;;;;5094899;27;19934;-72
2022/03/28 08:31:40;;;;;;;;;;;6.40;99.90;;;;;;5090992;27;20155;-72
2022/03/28 08:34:07;;;;;;;;;;;6.40;99.90;;;;;;5098632;27;19979;-72
2022/03/28 08:36:33;;;;;;;;;;;6.40;99.90;;;;;;5090862;27;20029;-72
2022/03/28 08:38:59;;;;;;;;;;;6.60;99.90;;;;;;5093589;27;20388;-72
2022/03/28 08:41:26;;;;;;;;;;;6.20;99.90;;;;;;5114792;27;20606;-72
2022/03/28 08:43:52;;;;;;;;;;;6.30;99.90;;;;;;5114386;27;20359;-72
2022/03/28 08:46:18;;;;;;;;;;;6.60;99.90;;;;;;5107930;27;19938;-72
2022/03/28 08:48:43;;;;;;;;;;;6.90;99.90;;;;;;5094306;27;19996;-72
2022/03/28 08:51:10;;;;;;;;;;;6.80;99.90;;;;;;5096001;27;20475;-72
2022/03/28 08:53:36;;;;;;;;;;;7.00;99.90;;;;;;5097279;27;20414;-71
2022/03/28 08:56:02;;;;;;;;;;;6.80;99.90;;;;;;5114951;27;19927;-72
2022/03/28 08:58:28;;;;;;;;;;;6.60;99.90;;;;;;5095592;27;19950;-72
2022/03/28 09:00:54;;;;;;;;;;;6.80;99.90;;;;;;5096560;27;20486;-72
2022/03/28 09:03:19;;;;;;;;;;;7.10;99.90;;;;;;5097259;27;19971;-72
2022/03/28 09:05:47;;;;;;;;;;;6.80;99.90;;;;;;5118364;27;19931;-72
2022/03/28 09:08:12;;;;;;;;;;;6.80;99.90;;;;;;5119161;27;20613;-72
2022/03/28 09:10:43;;;;;;;;;;;7.10;99.90;;;;;;5081595;27;19927;-72
2022/03/28 09:13:10;;;;;;;;;;;7.10;99.90;;;;;;5119712;27;19934;-72
2022/03/28 09:15:43;;;;;;;;;;;7.40;99.90;;;;;;5102700;27;19927;-72
2022/03/28 09:18:18;;;;;;;;;;;7.20;99.90;;;;;;5095987;27;19923;-72
2022/03/28 09:20:47;;;;;;;;;;;7.40;99.90;;;;;;5094000;27;19927;-73
2022/03/28 09:23:35;;;;;;;;;;;7.20;99.90;;;;;;5120751;27;19927;-72
2022/03/28 09:26:08;;;;;;;;;;;7.30;99.90;;;;;;5097463;27;19960;-72
2022/03/28 09:28:53;;;;;;;;;;;7.20;99.90;;;;;;5093823;27;20792;-72
2022/03/28 09:31:19;;;;;;;;;;;7.00;99.90;;;;;;5088237;27;20772;-72
2022/03/28 09:33:57;;;;;;;;;;;7.10;99.90;;;;;;5100017;27;19932;-72
2022/03/28 09:36:33;;;;;;;;;;;7.10;99.90;;;;;;5100964;27;20675;-72
2022/03/28 09:38:58;;;;;;;;;;;7.10;99.90;;;;;;5090743;27;19936;-72
2022/03/28 09:41:24;;;;;;;;;;;7.20;99.90;;;;;;5098236;27;19935;-72
2022/03/28 09:43:53;;;;;;;;;;;7.30;99.90;;;;;;5099091;27;19931;-72
2022/03/28 09:46:29;;;;;;;;;;;7.40;99.90;;;;;;5097705;27;19927;-72
2022/03/28 09:48:57;;;;;;;;;;;7.80;99.90;;;;;;5094075;27;20277;-72
2022/03/28 09:51:26;;;;;;;;;;;7.70;99.90;;;;;;5095979;27;20542;-72
2022/03/28 09:53:51;;;;;;;;;;;7.20;99.90;;;;;;5118383;27;19927;-72
2022/03/28 09:56:18;;;;;;;;;;;7.60;99.90;;;;;;5116192;27;19939;-72
2022/03/28 09:58:46;;;;;;;;;;;7.80;99.90;;;;;;5079874;27;19927;-72
2022/03/28 10:01:11;;;;;;;;;;;7.90;99.90;;;;;;5111811;27;19927;-71
2022/03/28 10:03:37;;;;;;;;;;;8.00;99.90;;;;;;5116388;27;19977;-72
2022/03/28 10:06:04;;;;;;;;;;;8.00;99.90;;;;;;5117232;27;19931;-72
2022/03/28 10:08:30;;;;;;;;;;;8.20;99.90;;;;;;5112877;27;19927;-72
2022/03/28 10:10:57;;;;;;;;;;;7.90;99.90;;;;;;5094880;27;19934;-72
2022/03/28 10:13:22;;;;;;;;;;;8.10;99.90;;;;;;5115787;27;20308;-72
2022/03/28 10:15:49;;;;;;;;;;;8.00;99.90;;;;;;5097227;27;19927;-72
2022/03/28 10:18:15;;;;;;;;;;;7.90;99.90;;;;;;5117837;27;19927;-72
2022/03/28 10:20:41;;;;;;;;;;;8.20;99.90;;;;;;5079588;27;20287;-72
2022/03/28 10:23:08;;;;;;;;;;;8.00;99.90;;;;;;5113803;27;19938;-72
2022/03/28 10:25:34;;;;;;;;;;;8.10;99.90;;;;;;5116091;27;19933;-73
2022/03/28 10:27:59;;;;;;;;;;;8.10;99.90;;;;;;5081351;27;19923;-72
2022/03/28 10:30:30;;;;;;;;;;;8.70;99.90;;;;;;5100767;27;20491;-72
2022/03/28 10:33:10;;;;;;;;;;;8.90;99.90;;;;;;5099626;27;19933;-72
2022/03/28 10:35:35;;;;;;;;;;;8.60;99.90;;;;;;5097751;27;19927;-72
2022/03/28 10:38:14;;;;;;;;;;;9.10;99.90;;;;;;5101079;27;19927;-72
2022/03/28 10:40:52;;;;;;;;;;;9.00;99.90;;;;;;5077460;27;20017;-72
2022/03/28 10:43:18;;;;;;;;;;;8.90;99.90;;;;;;5104960;27;20406;-72
2022/03/28 10:45:45;;;;;;;;;;;8.90;99.90;;;;;;5102322;27;19927;-72
2022/03/28 10:48:11;;;;;;;;;;;9.00;99.90;;;;;;5101201;27;20416;-72
2022/03/28 10:50:42;;;;;;;;;;;9.10;99.90;;;;;;5098417;27;19931;-72
2022/03/28 10:53:10;;;;;;;;;;;9.20;99.90;;;;;;5091157;27;19927;-72
2022/03/28 10:55:37;;;;;;;;;;;9.20;99.90;;;;;;5098686;27;19927;-72
2022/03/28 10:58:22;;;;;;;;;;;9.40;99.90;;;;;;5098921;27;20064;-72
2022/03/28 11:01:07;;;;;;;;;;;9.80;99.90;;;;;;5075947;27;19958;-72
2022/03/28 11:03:36;;;;;;;;;;;10.00;99.90;;;;;;5116237;27;20647;-72
2022/03/28 11:06:02;;;;;;;;;;;8.80;99.90;;;;;;5117310;27;19950;-72
2022/03/28 11:08:31;;;;;;;;;;;8.90;99.90;;;;;;5119191;27;20803;-72
2022/03/28 11:11:16;;;;;;;;;;;9.10;99.90;;;;;;5101102;27;19931;-73
2022/03/28 11:13:41;;;;;;;;;;;9.50;99.90;;;;;;5119690;27;20215;-72
2022/03/28 11:16:18;;;;;;;;;;;9.20;99.90;;;;;;5097817;27;20833;-72
2022/03/28 11:18:44;;;;;;;;;;;9.30;99.90;;;;;;5097419;27;20037;-73
2022/03/28 11:21:11;;;;;;;;;;;9.20;99.90;;;;;;5095958;27;19939;-72
2022/03/28 11:23:42;;;;;;;;;;;9.70;99.90;;;;;;5097875;27;19931;-72
2022/03/28 11:26:08;;;;;;;;;;;9.70;99.90;;;;;;5096657;27;19934;-72
2022/03/28 11:28:38;;;;;;;;;;;10.50;99.90;;;;;;5098273;27;19927;-72
2022/03/28 11:31:11;;;;;;;;;;;10.30;99.90;;;;;;5096807;27;19931;-73
2022/03/28 11:33:47;;;;;;;;;;;9.90;99.90;;;;;;5114431;27;20569;-72
2022/03/28 11:36:18;;;;;;;;;;;9.30;99.90;;;;;;5094850;27;20447;-72
2022/03/28 11:38:55;;;;;;;;;;;10.50;99.90;;;;;;5054827;27;20421;-72
2022/03/28 11:41:22;;;;;;;;;;;10.40;99.90;;;;;;5120316;27;20046;-72
2022/03/28 11:43:49;;;;;;;;;;;10.60;99.90;;;;;;5098505;27;19926;-73
2022/03/28 11:46:19;;;;;;;;;;;11.50;99.90;;;;;;5115371;27;19927;-75
2022/03/28 11:48:56;;;;;;;;;;;11.50;99.90;;;;;;5098236;27;19935;-73
2022/03/28 11:51:23;;;;;;;;;;;10.80;99.90;;;;;;5093200;27;19931;-73
2022/03/28 11:53:48;;;;;;;;;;;11.10;99.90;;;;;;5095720;27;19927;-73
2022/03/28 11:56:24;;;;;;;;;;;12.10;99.90;;;;;;5097365;27;19929;-73
2022/03/28 11:58:50;;;;;;;;;;;11.70;99.90;;;;;;5095174;27;19984;-73
2022/03/28 12:01:16;;;;;;;;;;;11.60;99.90;;;;;;5115136;27;19927;-73
2022/03/28 12:03:48;;;;;;;;;;;12.00;99.90;;;;;;5118060;27;19934;-73
2022/03/28 12:06:24;;;;;;;;;;;12.30;99.90;;;;;;5102690;27;20026;-73
2022/03/28 12:08:50;;;;;;;;;;;11.90;99.90;;;;;;5097903;27;20620;-73
2022/03/28 12:11:16;;;;;;;;;;;11.80;99.90;;;;;;5119870;27;19927;-73
2022/03/28 12:13:41;;;;;;;;;;;12.30;99.90;;;;;;5080490;27;19936;-73
2022/03/28 12:16:07;;;;;;;;;;;12.30;99.90;;;;;;5114182;27;19939;-73
2022/03/28 12:18:32;;;;;;;;;;;12.50;99.90;;;;;;5114782;27;19927;-73
2022/03/28 12:20:58;;;;;;;;;;;12.90;99.90;;;;;;5072704;27;19927;-73
2022/03/28 12:23:28;;;;;;;;;;;12.10;99.90;;;;;;5113157;27;20019;-73
2022/03/28 12:25:55;;;;;;;;;;;12.30;99.90;;;;;;5098457;27;19949;-73
2022/03/28 12:28:23;;;;;;;;;;;13.10;99.90;;;;;;5097400;27;20401;-73
2022/03/28 12:30:50;;;;;;;;;;;13.40;99.90;;;;;;5118629;27;19927;-73
2022/03/28 12:33:17;;;;;;;;;;;13.00;99.90;;;;;;5116613;27;19927;-73
2022/03/28 12:35:45;;;;;;;;;;;13.60;99.90;;;;;;5101980;27;19949;-73
2022/03/28 12:38:15;;;;;;;;;;;13.50;99.90;;;;;;5096424;27;20540;-72
2022/03/28 12:40:43;;;;;;;;;;;12.70;99.90;;;;;;5096067;27;19934;-72
2022/03/28 12:43:09;;;;;;;;;;;13.40;99.90;;;;;;5091483;27;20701;-72
2022/03/28 12:45:37;;;;;;;;;;;13.40;99.90;;;;;;5097151;27;19931;-72
2022/03/28 12:48:06;;;;;;;;;;;13.20;99.90;;;;;;5093899;27;19931;-72
2022/03/28 12:50:31;;;;;;;;;;;14.10;99.90;;;;;;5122036;27;19930;-72
2022/03/28 12:53:10;;;;;;;;;;;13.20;99.90;;;;;;5116990;27;19973;-72
2022/03/28 12:55:36;;;;;;;;;;;13.20;99.90;;;;;;5099471;27;20718;-72
2022/03/28 12:58:01;;;;;;;;;;;14.00;99.90;;;;;;5097584;27;20035;-72
2022/03/28 13:00:27;;;;;;;;;;;14.30;99.90;;;;;;5100029;27;20389;-72
2022/03/28 13:02:53;;;;;;;;;;;14.80;99.90;;;;;;5116874;27;19927;-72
2022/03/28 13:05:19;;;;;;;;;;;14.70;99.90;;;;;;5119881;27;19954;-72
2022/03/28 13:07:47;;;;;;;;;;;14.90;99.90;;;;;;5097109;27;20035;-72
2022/03/28 13:10:20;;;;;;;;;;;14.70;99.90;;;;;;5118887;27;20637;-71
2022/03/28 13:12:47;;;;;;;;;;;14.70;99.90;;;;;;5095786;27;19927;-72
2022/03/28 13:15:17;;;;;;;;;;;14.90;99.90;;;;;;5097782;27;21002;-72
2022/03/28 13:17:48;;;;;;;;;;;15.10;99.90;;;;;;5101423;27;19927;-72
2022/03/28 13:20:18;;;;;;;;;;;15.60;99.90;;;;;;5074340;27;20547;-72
2022/03/28 13:22:46;;;;;;;;;;;15.70;99.90;;;;;;5100916;27;20287;-72
2022/03/28 13:25:16;;;;;;;;;;;15.70;99.90;;;;;;5097599;27;19934;-72
2022/03/28 13:30:28;;;;;;;;;;;14.90;99.90;;;;;;5118001;27;19927;-73
2022/03/28 13:32:54;;;;;;;;;;;13.70;99.90;;;;;;5116447;27;19979;-73
2022/03/28 13:35:20;;;;;;;;;;;14.40;99.90;;;;;;5099110;27;19924;-73
2022/03/28 13:37:58;;;;;;;;;;;14.90;99.90;;;;;;5098364;27;19934;-72
2022/03/28 13:40:25;;;;;;;;;;;14.40;99.90;;;;;;5119497;27;19927;-73
2022/03/28 13:42:51;;;;;;;;;;;14.80;99.90;;;;;;5098165;27;19935;-72
2022/03/28 13:45:16;;;;;;;;;;;15.30;99.90;;;;;;5096477;27;19927;-72
2022/03/28 13:47:42;;;;;;;;;;;14.50;99.90;;;;;;5096413;27;19927;-73
2022/03/28 13:50:08;;;;;;;;;;;15.00;99.90;;;;;;5114973;27;20664;-72
2022/03/28 13:52:33;;;;;;;;;;;14.50;99.90;;;;;;5093989;27;19984;-72
2022/03/28 13:54:59;;;;;;;;;;;15.00;99.90;;;;;;5117823;27;20611;-73
2022/03/28 13:57:26;;;;;;;;;;;14.40;99.90;;;;;;5095472;27;19931;-72
2022/03/28 13:59:52;;;;;;;;;;;14.90;99.90;;;;;;5101809;27;20042;-72
2022/03/28 14:02:19;;;;;;;;;;;14.80;99.90;;;;;;5120753;27;19931;-72
2022/03/28 14:04:45;;;;;;;;;;;14.60;99.90;;;;;;5092813;27;20574;-72
2022/03/28 14:07:10;;;;;;;;;;;14.90;99.90;;;;;;5119966;27;19938;-73
2022/03/28 14:09:36;;;;;;;;;;;15.10;99.90;;;;;;5102457;27;19934;-73
2022/03/28 14:12:02;;;;;;;;;;;15.30;99.90;;;;;;5100733;27;20423;-72
2022/03/28 14:14:27;;;;;;;;;;;15.20;99.90;;;;;;5099541;27;20582;-73
2022/03/28 14:16:53;;;;;;;;;;;14.40;99.90;;;;;;5099965;27;19923;-72
2022/03/28 14:19:19;;;;;;;;;;;15.10;99.90;;;;;;5109028;27;19927;-72
2022/03/28 14:21:44;;;;;;;;;;;15.60;99.90;;;;;;5095963;27;20760;-72
2022/03/28 14:24:11;;;;;;;;;;;15.80;99.90;;;;;;5118895;27;20397;-73
2022/03/28 14:26:36;;;;;;;;;;;14.80;99.90;;;;;;5089371;27;19927;-73
2022/03/28 14:29:03;;;;;;;;;;;15.60;99.90;;;;;;5096440;27;20184;-73
2022/03/28 14:31:29;;;;;;;;;;;15.80;99.90;;;;;;5116093;27;19987;-72